Lazbuddie, Texas
Current Conditions -  °F | °C
As of 12:15 AM on Thursday 23 Oct 2014 (Local Time) from KCVN Reporting Station
Broken Clouds Broken Clouds  
Wind Chill: 57°   Ceiling: 500
Heat Index: 57°   Visibility: 7mi
Dew Point: 54°   Wind: 7mph
Humidity: 88%   Direction: 190°S
Pressure: 30.17"   Gusts: NA
Location:  34.39°N, 102.61°W
Report Text: KCVN 230515Z AUTO 19006KT 7SM BKN005 14/12 A3017 RMK AO1
Loading
Personal Weather Stations






























Interactive Weather Map
Tropical Storm Tracking
New forecast layout! Learn more

10-Day Weather Forecast

Advertisements
Track Severe Weather on mobile